Time,TemperatureF,DewpointF,PressureIn,WindDirection,WindDirectionDegrees,WindSpeedMPH,WindSpeedGustMPH,Humidity,HourlyPrecipIn,Conditions,Clouds,dailyrainin,SolarRadiationWatts/m^2,SoftwareType,DateUTC
2019-10-23 00:00:08,45,43.7,30.19,SSE,148,0.9,2,95,0,,,0,0.00,meteobridge,2019-10-22 22:00:08,
2019-10-23 00:05:10,44.8,43.5,30.19,SSE,148,2,3,95,0,,,0,0.00,meteobridge,2019-10-22 22:05:10,
2019-10-23 00:10:14,44.8,43.5,30.19,SSE,148,0,1,95,0,,,0,0.00,meteobridge,2019-10-22 22:10:14,
2019-10-23 00:15:18,44.6,43.3,30.19,SSE,148,0,1,95,0,,,0,0.00,meteobridge,2019-10-22 22:15:18,
2019-10-23 00:20:22,44.4,43.2,30.19,SSE,148,0,0,95,0,,,0,0.00,meteobridge,2019-10-22 22:20:22,
2019-10-23 00:25:26,44.2,43,30.19,SSE,148,0,0,95,0,,,0,0.00,meteobridge,2019-10-22 22:25:26,
2019-10-23 00:30:00,44.2,43,30.19,SSE,148,0.9,1,95,0,,,0,0.00,meteobridge,2019-10-22 22:30:00,
2019-10-23 00:35:04,44.1,42.8,30.19,SSE,148,0.9,1,95,0,,,0,0.00,meteobridge,2019-10-22 22:35:04,
2019-10-23 00:40:08,44.1,42.8,30.19,SSE,148,0.9,1,95,0,,,0,0.00,meteobridge,2019-10-22 22:40:08,
2019-10-23 00:45:12,43.9,42.6,30.19,SSE,148,0.9,1,95,0,,,0,0.00,meteobridge,2019-10-22 22:45:12,
2019-10-23 00:50:16,43.7,42.4,30.19,SSE,148,0.9,1,95,0,,,0,0.00,meteobridge,2019-10-22 22:50:16,
2019-10-23 00:55:20,43.7,42.4,30.19,SSE,148,0,1,95,0,,,0,0.00,meteobridge,2019-10-22 22:55:20,
2019-10-23 01:00:24,43.5,42.3,30.19,SSE,148,0.9,2,95,0,,,0,0.00,meteobridge,2019-10-22 23:00:24,
2019-10-23 01:05:28,43.7,42.4,30.19,SSE,148,2.9,3,95,0,,,0,0.00,meteobridge,2019-10-22 23:05:28,
2019-10-23 01:10:02,43.9,42.6,30.19,SSE,148,0.9,3,95,0,,,0,0.00,meteobridge,2019-10-22 23:10:02,
2019-10-23 01:15:06,43.9,42.6,30.19,SSE,147,0.9,2,95,0,,,0,0.00,meteobridge,2019-10-22 23:15:06,
2019-10-23 01:20:10,43.9,42.6,30.19,SSE,147,0,2,95,0,,,0,0.00,meteobridge,2019-10-22 23:20:10,
2019-10-23 01:25:14,43.9,42.6,30.18,SSE,147,0,1,95,0,,,0,0.00,meteobridge,2019-10-22 23:25:14,
2019-10-23 01:30:18,43.5,42.3,30.18,SSE,147,0,1,95,0,,,0,0.00,meteobridge,2019-10-22 23:30:18,
2019-10-23 01:35:18,43.3,42.1,30.18,SSE,147,0.9,2,95,0,,,0,0.00,meteobridge,2019-10-22 23:35:18,
2019-10-23 01:40:22,43.3,42.1,30.18,SSE,147,2,2,95,0,,,0,0.00,meteobridge,2019-10-22 23:40:22,
2019-10-23 01:45:26,43.3,42.1,30.18,SSE,148,2,3,95,0,,,0,0.00,meteobridge,2019-10-22 23:45:26,
2019-10-23 01:50:00,43.3,42.1,30.17,SSE,148,0.9,2,95,0,,,0,0.00,meteobridge,2019-10-22 23:50:00,
2019-10-23 01:55:04,43.3,42.1,30.17,SSE,148,0.9,2,95,0,,,0,0.00,meteobridge,2019-10-22 23:55:04,
2019-10-23 02:00:08,43.9,42.6,30.17,SE,143,2.9,3,95,0,,,0,0.00,meteobridge,2019-10-23 00:00:08,
2019-10-23 02:05:12,44.1,42.8,30.17,SE,139,0.9,4,95,0,,,0,0.00,meteobridge,2019-10-23 00:05:12,
2019-10-23 02:10:16,44.1,42.8,30.17,SE,139,0.9,2,95,0,,,0,0.00,meteobridge,2019-10-23 00:10:16,
2019-10-23 02:15:20,43.7,42.4,30.17,SE,139,0.9,2,95,0,,,0,0.00,meteobridge,2019-10-23 00:15:20,
2019-10-23 02:20:24,43.5,42.3,30.17,SE,138,0,2,95,0,,,0,0.00,meteobridge,2019-10-23 00:20:24,
2019-10-23 02:25:28,43.5,42.3,30.16,SE,139,0,1,95,0,,,0,0.00,meteobridge,2019-10-23 00:25:28,
2019-10-23 02:30:02,43.3,42.1,30.16,SE,139,0.9,2,95,0,,,0,0.00,meteobridge,2019-10-23 00:30:02,
2019-10-23 02:35:06,43.3,42.1,30.16,SE,139,0.9,2,95,0,,,0,0.00,meteobridge,2019-10-23 00:35:06,
2019-10-23 02:40:10,43.2,41.9,30.16,SE,139,0.9,2,95,0,,,0,0.00,meteobridge,2019-10-23 00:40:10,
2019-10-23 02:45:14,43.2,41.9,30.16,SE,139,0.9,2,95,0,,,0,0.00,meteobridge,2019-10-23 00:45:14,
2019-10-23 02:50:18,43.2,41.9,30.17,SE,139,0.9,2,95,0,,,0,0.00,meteobridge,2019-10-23 00:50:18,
2019-10-23 02:55:22,43.2,41.9,30.17,SE,139,0.9,2,95,0,,,0,0.00,meteobridge,2019-10-23 00:55:22,
2019-10-23 03:00:26,43.3,42.1,30.17,SE,139,2,2,95,0,,,0,0.00,meteobridge,2019-10-23 01:00:26,
2019-10-23 03:05:00,43.5,42.3,30.16,SE,130,0.9,2,95,0,,,0,0.00,meteobridge,2019-10-23 01:05:00,
2019-10-23 03:10:04,43.3,42.1,30.16,SE,130,0,2,95,0,,,0,0.00,meteobridge,2019-10-23 01:10:04,
2019-10-23 03:15:08,43.2,41.9,30.16,SE,130,0,0,95,0,,,0,0.00,meteobridge,2019-10-23 01:15:08,
2019-10-23 03:20:14,43,41.7,30.16,SE,131,0,0,95,0,,,0,0.00,meteobridge,2019-10-23 01:20:14,
2019-10-23 03:25:18,43.2,41.9,30.15,SE,131,0,0,95,0,,,0,0.00,meteobridge,2019-10-23 01:25:18,
2019-10-23 03:30:22,43,41.7,30.15,SE,131,0,0,95,0,,,0,0.00,meteobridge,2019-10-23 01:30:22,
2019-10-23 03:35:30,43.2,41.9,30.15,SE,130,0,0,95,0,,,0,0.00,meteobridge,2019-10-23 01:35:30,
2019-10-23 03:40:02,43.3,42.1,30.14,ESE,119,0,0,95,0,,,0,0.00,meteobridge,2019-10-23 01:40:02,
2019-10-23 03:45:06,43.5,42.4,30.14,ESE,118,0,0,96,0,,,0,0.00,meteobridge,2019-10-23 01:45:06,
2019-10-23 03:50:10,43.9,42.8,30.14,ESE,118,0,1,96,0,,,0,0.00,meteobridge,2019-10-23 01:50:10,
2019-10-23 03:55:14,44.2,43,30.14,ESE,118,0.9,2,95,0,,,0,0.00,meteobridge,2019-10-23 01:55:14,
2019-10-23 04:00:18,44.4,43.3,30.14,ESE,118,0,1,96,0,,,0,0.00,meteobridge,2019-10-23 02:00:18,
2019-10-23 04:05:22,44.8,43.7,30.14,ESE,118,0.9,2,96,0,,,0,0.00,meteobridge,2019-10-23 02:05:22,
2019-10-23 04:10:30,44.8,43.5,30.14,ESE,118,0,1,95,0,,,0,0.00,meteobridge,2019-10-23 02:10:30,
2019-10-23 04:15:02,44.4,43.2,30.14,ESE,118,0,1,95,0,,,0,0.00,meteobridge,2019-10-23 02:15:02,
2019-10-23 04:20:10,44.2,43.2,30.14,ESE,118,2,2,96,0,,,0,0.00,meteobridge,2019-10-23 02:20:10,
2019-10-23 04:25:14,44.2,43.2,30.14,SE,128,0.9,3,96,0,,,0,0.00,meteobridge,2019-10-23 02:25:14,
2019-10-23 04:30:20,44.6,43.5,30.14,SE,140,2,3,96,0,,,0,0.00,meteobridge,2019-10-23 02:30:20,
2019-10-23 04:35:28,44.4,43.3,30.14,SSE,153,2,3,96,0,,,0,0.00,meteobridge,2019-10-23 02:35:28,
2019-10-23 04:40:02,45,43.9,30.14,SE,142,0.9,3,96,0,,,0,0.00,meteobridge,2019-10-23 02:40:02,
2019-10-23 04:45:06,45.1,44.1,30.14,ESE,118,0.9,3,96,0,,,0,0.00,meteobridge,2019-10-23 02:45:06,
2019-10-23 04:50:12,45.3,44.2,30.14,SE,127,0.9,4,96,0,,,0,0.00,meteobridge,2019-10-23 02:50:12,
2019-10-23 04:55:16,45.7,44.6,30.14,SSE,155,2,4,96,0,,,0,0.00,meteobridge,2019-10-23 02:55:16,
2019-10-23 05:00:20,45.9,44.8,30.14,SE,134,2,2,96,0,,,0,0.00,meteobridge,2019-10-23 03:00:20,
2019-10-23 05:05:24,45.9,44.8,30.14,SE,139,2,2,96,0,,,0,0.00,meteobridge,2019-10-23 03:05:24,
2019-10-23 05:10:28,45.9,44.8,30.14,SSE,165,0.9,4,96,0,,,0,0.00,meteobridge,2019-10-23 03:10:28,
2019-10-23 05:15:00,45.9,44.8,30.14,SSE,148,2,5,96,0,,,0,0.00,meteobridge,2019-10-23 03:15:00,
2019-10-23 05:20:02,45.7,44.6,30.13,SSE,150,2,3,96,0,,,0,0.00,meteobridge,2019-10-23 03:20:02,
2019-10-23 05:25:08,45.7,44.6,30.13,SSE,147,2,4,96,0,,,0,0.00,meteobridge,2019-10-23 03:25:08,
2019-10-23 05:30:12,45.7,44.6,30.13,SSE,147,2,4,96,0,,,0,0.00,meteobridge,2019-10-23 03:30:12,
2019-10-23 05:35:18,45.7,44.6,30.13,SE,128,2.9,4,96,0,,,0,0.00,meteobridge,2019-10-23 03:35:18,
2019-10-23 05:40:22,45.7,44.6,30.13,SE,138,2.9,3,96,0,,,0,0.00,meteobridge,2019-10-23 03:40:22,
2019-10-23 05:45:22,45.7,44.6,30.13,SE,138,2,3,96,0,,,0,0.00,meteobridge,2019-10-23 03:45:22,
2019-10-23 05:50:27,45.7,44.6,30.13,SE,138,0.9,3,96,0,,,0,0.00,meteobridge,2019-10-23 03:50:27,
2019-10-23 05:55:02,45.7,44.6,30.13,SE,138,0.9,3,96,0,,,0,0.00,meteobridge,2019-10-23 03:55:02,
2019-10-23 06:00:06,45.5,44.4,30.13,SE,138,0.9,1,96,0,,,0,0.00,meteobridge,2019-10-23 04:00:06,
2019-10-23 06:05:13,45.1,43.9,30.12,SE,138,0.9,2,95,0,,,0,0.00,meteobridge,2019-10-23 04:05:13,
2019-10-23 06:10:21,44.6,43.3,30.12,SE,138,0.9,2,95,0,,,0,0.00,meteobridge,2019-10-23 04:10:21,
2019-10-23 06:15:03,44.4,43.2,30.12,SE,138,0,2,95,0,,,0,0.00,meteobridge,2019-10-23 04:15:03,
2019-10-23 06:20:13,44.2,43,30.12,SE,138,0.9,2,95,0,,,0,0.00,meteobridge,2019-10-23 04:20:13,
2019-10-23 06:25:15,43.9,42.6,30.12,SE,138,0.9,2,95,0,,,0,0.00,meteobridge,2019-10-23 04:25:15,
2019-10-23 06:30:21,43.9,42.6,30.12,SE,138,0.9,2,95,0,,,0,0.00,meteobridge,2019-10-23 04:30:21,
2019-10-23 06:35:01,43.9,42.6,30.12,SE,138,0.9,1,95,0,,,0,0.00,meteobridge,2019-10-23 04:35:01,
2019-10-23 06:40:13,43.5,42.4,30.12,SE,138,0,1,96,0,,,0,0.00,meteobridge,2019-10-23 04:40:13,
2019-10-23 06:45:25,43.2,42.1,30.11,SE,138,0.9,2,96,0,,,0,0.00,meteobridge,2019-10-23 04:45:25,
2019-10-23 06:50:05,43.2,42.1,30.11,SE,138,0,2,96,0,,,0,0.00,meteobridge,2019-10-23 04:50:05,
2019-10-23 06:55:15,43,41.7,30.11,SE,138,0,1,95,0,,,0,0.00,meteobridge,2019-10-23 04:55:15,
2019-10-23 07:00:19,43.2,42.1,30.11,SE,138,2,2,96,0,,,0,0.00,meteobridge,2019-10-23 05:00:19,
2019-10-23 07:05:21,43.3,42.3,30.11,SE,138,0.9,2,96,0,,,0,0.00,meteobridge,2019-10-23 05:05:21,
2019-10-23 07:10:29,43.9,42.8,30.10,SE,138,0,1,96,0,,,0,0.00,meteobridge,2019-10-23 05:10:29,
2019-10-23 07:15:09,43.9,42.8,30.10,SE,138,0,0,96,0,,,0,0.00,meteobridge,2019-10-23 05:15:09,
2019-10-23 07:20:23,43.5,42.4,30.10,SE,138,0,0,96,0,,,0,0.00,meteobridge,2019-10-23 05:20:23,
2019-10-23 07:25:27,43.7,42.6,30.09,SE,138,0,1,96,0,,,0,0.00,meteobridge,2019-10-23 05:25:27,
2019-10-23 07:30:13,43.9,42.8,30.09,SE,138,0,1,96,0,,,0,0.00,meteobridge,2019-10-23 05:30:13,
2019-10-23 07:35:25,43.9,42.8,30.09,SE,138,0,0,96,0,,,0,0.00,meteobridge,2019-10-23 05:35:25,
2019-10-23 07:40:05,43.9,42.8,30.09,SE,138,0,1,96,0,,,0,0.00,meteobridge,2019-10-23 05:40:05,
2019-10-23 07:45:11,44.2,43.2,30.09,SE,138,0.9,1,96,0,,,0,0.00,meteobridge,2019-10-23 05:45:11,
2019-10-23 07:50:17,44.2,43.2,30.09,SE,138,0,0,96,0,,,0,0.00,meteobridge,2019-10-23 05:50:17,
2019-10-23 07:55:31,44.4,43.3,30.10,SE,138,0,2,96,0,,,0,0.00,meteobridge,2019-10-23 05:55:31,
2019-10-23 08:00:09,44.6,43.5,30.10,SE,138,0.9,2,96,0,,,0,0.00,meteobridge,2019-10-23 06:00:09,
2019-10-23 08:05:17,44.8,43.7,30.10,SE,138,2,3,96,0,,,0,0.00,meteobridge,2019-10-23 06:05:17,
2019-10-23 08:10:27,45.1,44.1,30.10,SE,138,0.9,3,96,0,,,0,0.00,meteobridge,2019-10-23 06:10:27,
2019-10-23 08:15:03,45.5,44.4,30.10,SE,131,0.9,3,96,0,,,0,0.00,meteobridge,2019-10-23 06:15:03,
2019-10-23 08:20:05,45.7,44.6,30.10,ESE,111,0.9,2,96,0,,,0,0.00,meteobridge,2019-10-23 06:20:05,
2019-10-23 08:25:05,45.7,44.6,30.10,ESE,122,2,4,96,0,,,0,5.00,meteobridge,2019-10-23 06:25:05,
2019-10-23 08:30:09,46,45,30.10,ESE,123,2,3,96,0,,,0,5.00,meteobridge,2019-10-23 06:30:09,
2019-10-23 08:35:19,46,45,30.10,ESE,113,2,3,96,0,,,0,7.00,meteobridge,2019-10-23 06:35:19,
2019-10-23 08:40:23,46,45,30.10,ESE,117,2,2,96,0,,,0,9.00,meteobridge,2019-10-23 06:40:23,
2019-10-23 08:45:29,46.2,45.1,30.10,ESE,113,0,1,96,0,,,0,12.00,meteobridge,2019-10-23 06:45:29,
2019-10-23 08:50:03,46.2,45.1,30.10,ESE,113,0.9,3,96,0,,,0,14.00,meteobridge,2019-10-23 06:50:03,
2019-10-23 08:55:07,46.2,45.1,30.10,ESE,113,0.9,2,96,0,,,0,18.00,meteobridge,2019-10-23 06:55:07,
2019-10-23 09:00:09,46.6,45.5,30.10,ESE,113,0.9,2,96,0,,,0,21.00,meteobridge,2019-10-23 07:00:09,
2019-10-23 09:05:13,46.6,45.5,30.10,ESE,113,2,2,96,0,,,0,26.00,meteobridge,2019-10-23 07:05:13,
2019-10-23 09:10:17,46.8,45.7,30.10,ESE,113,0.9,2,96,0,,,0,33.00,meteobridge,2019-10-23 07:10:17,
2019-10-23 09:15:19,46.9,45.9,30.11,ESE,114,0.9,3,96,0,,,0,37.00,meteobridge,2019-10-23 07:15:19,
2019-10-23 09:20:23,47.1,46,30.10,ESE,117,0.9,3,96,0,,,0,42.00,meteobridge,2019-10-23 07:20:23,
2019-10-23 09:25:27,47.5,46.4,30.10,ESE,117,0.9,3,96,0,,,0,47.00,meteobridge,2019-10-23 07:25:27,
2019-10-23 09:30:01,47.7,46.6,30.10,ESE,117,0,3,96,0,,,0,49.00,meteobridge,2019-10-23 07:30:01,
2019-10-23 09:35:03,47.8,46.8,30.09,ESE,117,2,3,96,0,,,0,54.00,meteobridge,2019-10-23 07:35:03,
2019-10-23 09:40:07,48,46.9,30.10,ESE,117,0.9,2,96,0,,,0,58.00,meteobridge,2019-10-23 07:40:07,
2019-10-23 09:45:11,48.2,47.1,30.09,ESE,117,0.9,4,96,0,,,0,60.00,meteobridge,2019-10-23 07:45:11,
2019-10-23 09:50:11,48.4,47.3,30.10,ESE,121,0.9,3,96,0,,,0,62.00,meteobridge,2019-10-23 07:50:11,
2019-10-23 09:55:17,48.6,47.5,30.10,ESE,122,0.9,4,96,0,,,0,60.00,meteobridge,2019-10-23 07:55:17,
2019-10-23 10:00:19,48.7,47.7,30.10,SE,134,0,2,96,0,,,0,65.00,meteobridge,2019-10-23 08:00:19,
2019-10-23 10:05:25,48.7,47.3,30.10,SE,126,2,3,95,0,,,0,76.00,meteobridge,2019-10-23 08:05:25,
2019-10-23 10:10:25,48.7,47.3,30.10,SE,126,0.9,2,95,0,,,0,77.00,meteobridge,2019-10-23 08:10:25,
2019-10-23 10:15:29,48.9,47.5,30.09,ESE,110,0,2,95,0,,,0,76.00,meteobridge,2019-10-23 08:15:29,
2019-10-23 10:20:03,49.3,47.8,30.09,ESE,117,0.9,3,95,0,,,0,70.00,meteobridge,2019-10-23 08:20:03,
2019-10-23 10:25:07,49.3,47.8,30.09,SE,126,2,3,95,0,,,0,67.00,meteobridge,2019-10-23 08:25:07,
2019-10-23 10:30:11,49.5,48,30.09,East,97,0.9,2,95,0,,,0,67.00,meteobridge,2019-10-23 08:30:11,
2019-10-23 10:35:15,49.5,47.8,30.09,East,99,0.9,3,94,0,,,0,67.00,meteobridge,2019-10-23 08:35:15,
2019-10-23 10:40:17,49.6,48,30.09,East,99,0.9,2,94,0,,,0,67.00,meteobridge,2019-10-23 08:40:17,
2019-10-23 10:45:19,49.8,48.2,30.09,East,99,2,3,94,0,,,0,63.00,meteobridge,2019-10-23 08:45:19,
2019-10-23 10:50:23,49.8,48.2,30.09,East,101,0,3,94,0,,,0,77.00,meteobridge,2019-10-23 08:50:23,
2019-10-23 10:55:27,50,48.4,30.09,East,101,0.9,2,94,0,,,0,105.00,meteobridge,2019-10-23 08:55:27,
2019-10-23 11:00:01,50.2,48.6,30.08,East,101,0.9,3,94,0,,,0,125.00,meteobridge,2019-10-23 09:00:01,
2019-10-23 11:05:05,50.5,48.9,30.08,East,101,2,3,94,0,,,0,121.00,meteobridge,2019-10-23 09:05:05,
2019-10-23 11:10:09,50.5,48.6,30.07,East,101,0.9,3,93,0,,,0,116.00,meteobridge,2019-10-23 09:10:09,
2019-10-23 11:15:13,50.7,48.7,30.08,East,101,0.9,3,93,0,,,0,118.00,meteobridge,2019-10-23 09:15:13,
2019-10-23 11:20:17,51.1,49.1,30.07,East,101,2,3,93,0,,,0,130.00,meteobridge,2019-10-23 09:20:17,
2019-10-23 11:25:21,51.3,49.3,30.07,East,101,2,3,93,0,,,0,142.00,meteobridge,2019-10-23 09:25:21,
2019-10-23 11:30:25,51.4,49.3,30.07,East,87,6,6,92,0,,,0,155.00,meteobridge,2019-10-23 09:30:25,
2019-10-23 11:35:29,51.6,49.5,30.06,East,92,4,4,92,0,,,0,146.00,meteobridge,2019-10-23 09:35:29,
2019-10-23 11:40:03,51.8,49.6,30.06,ESE,112,2,4,92,0,,,0,109.00,meteobridge,2019-10-23 09:40:03,
2019-10-23 11:45:07,52,49.5,30.05,East,101,0.9,3,91,0,,,0,111.00,meteobridge,2019-10-23 09:45:07,
2019-10-23 11:50:11,52.2,49.6,30.04,ENE,65,2.9,6,91,0,,,0,144.00,meteobridge,2019-10-23 09:50:11,
2019-10-23 11:55:15,52.2,49.6,30.04,ENE,78,2,4,91,0,,,0,151.00,meteobridge,2019-10-23 09:55:15,
2019-10-23 12:00:19,52.5,50,30.04,ENE,71,0.9,1,91,0,,,0,149.00,meteobridge,2019-10-23 10:00:19,
2019-10-23 12:05:23,52.9,50.4,30.05,East,98,0.9,4,91,0,,,0,137.00,meteobridge,2019-10-23 10:05:23,
2019-10-23 12:10:27,52.9,50,30.04,East,88,2,4,90,0,,,0,146.00,meteobridge,2019-10-23 10:10:27,
2019-10-23 12:15:01,52.9,50,30.04,ENE,69,4,5,90,0,,,0,134.00,meteobridge,2019-10-23 10:15:01,
2019-10-23 12:20:05,53.1,50.2,30.04,ENE,71,4.9,5,90,0,,,0,139.00,meteobridge,2019-10-23 10:20:05,
2019-10-23 12:25:09,53.1,50.2,30.04,East,95,4,7,90,0,,,0,125.00,meteobridge,2019-10-23 10:25:09,
2019-10-23 12:30:13,53.1,49.8,30.04,ENE,76,4.9,7,89,0,,,0,109.00,meteobridge,2019-10-23 10:30:13,
2019-10-23 12:35:17,53.1,49.8,30.03,East,97,2,5,89,0,,,0,95.00,meteobridge,2019-10-23 10:35:17,
2019-10-23 12:40:21,53.1,50.2,30.03,ESE,113,4,7,90,0,,,0,93.00,meteobridge,2019-10-23 10:40:21,
2019-10-23 12:45:25,53.1,50.2,30.03,ENE,67,4,4,90,0,,,0,98.00,meteobridge,2019-10-23 10:45:25,
2019-10-23 12:50:29,53.1,50.2,30.03,ENE,72,4.9,7,90,0,,,0,116.00,meteobridge,2019-10-23 10:50:29,
2019-10-23 12:55:01,53.1,49.8,30.03,ESE,109,4,6,89,0,,,0,105.00,meteobridge,2019-10-23 10:55:01,
2019-10-23 13:00:05,53.1,49.8,30.03,East,88,2,6,89,0,,,0,91.00,meteobridge,2019-10-23 11:00:05,
2019-10-23 13:05:11,53.1,49.8,30.03,ESE,109,2,4,89,0,,,0,107.00,meteobridge,2019-10-23 11:05:11,
2019-10-23 13:10:15,53.2,50,30.03,ESE,119,2.9,8,89,0,,,0,139.00,meteobridge,2019-10-23 11:10:15,
2019-10-23 13:15:19,53.4,50.2,30.03,ENE,59,0,5,89,0,,,0,134.00,meteobridge,2019-10-23 11:15:19,
2019-10-23 13:20:23,53.6,50.4,30.02,East,90,4,5,89,0,,,0,90.00,meteobridge,2019-10-23 11:20:23,
2019-10-23 13:25:27,53.4,50.2,30.02,NE,53,2.9,5,89,0,,,0,107.00,meteobridge,2019-10-23 11:25:27,
2019-10-23 13:30:01,53.4,50.2,30.02,ESE,112,6,8,89,0,,,0,118.00,meteobridge,2019-10-23 11:30:01,
2019-10-23 13:35:09,53.4,50.2,30.02,ENE,67,4,9,89,0,,,0,127.00,meteobridge,2019-10-23 11:35:09,
2019-10-23 13:40:13,53.4,50,30.01,ENE,67,4.9,7,88,0,,,0,118.00,meteobridge,2019-10-23 11:40:13,
2019-10-23 13:45:19,53.4,50,30.01,ESE,105,2.9,9,88,0,,,0,134.00,meteobridge,2019-10-23 11:45:19,
2019-10-23 13:50:23,53.8,50.5,30.01,East,86,4,10,89,0,,,0,123.00,meteobridge,2019-10-23 11:50:23,
2019-10-23 13:55:27,54,50.5,30.01,East,96,2.9,6,88,0,,,0,165.00,meteobridge,2019-10-23 11:55:27,
2019-10-23 14:00:01,54,50.5,30.01,East,80,2,7,88,0,,,0,132.00,meteobridge,2019-10-23 12:00:01,
2019-10-23 14:05:07,54.1,50.7,30.01,ENE,71,4,6,88,0,,,0,127.00,meteobridge,2019-10-23 12:05:07,
2019-10-23 14:10:11,54.1,50.7,30.00,NE,46,4,8,88,0,,,0,135.00,meteobridge,2019-10-23 12:10:11,
2019-10-23 14:15:17,54.1,50.7,30.00,ENE,65,4,7,88,0,,,0,149.00,meteobridge,2019-10-23 12:15:17,
2019-10-23 14:20:21,54.3,50.9,30.00,East,96,0,8,88,0,,,0,149.00,meteobridge,2019-10-23 12:20:21,
2019-10-23 14:25:23,54.5,51.3,30.00,East,88,2,3,89,0,,,0,149.00,meteobridge,2019-10-23 12:25:23,
2019-10-23 14:30:29,54.7,51.4,29.99,ENE,75,2.9,4,89,0,,,0,141.00,meteobridge,2019-10-23 12:30:29,
2019-10-23 14:35:03,54.9,51.6,29.99,ENE,70,2.9,7,89,0,,,0,132.00,meteobridge,2019-10-23 12:35:03,
2019-10-23 14:40:07,54.9,51.6,29.99,ENE,65,0.9,3,89,0,,,0,148.00,meteobridge,2019-10-23 12:40:07,
2019-10-23 14:45:09,54.9,51.6,29.99,NE,47,0.9,4,89,0,,,0,128.00,meteobridge,2019-10-23 12:45:09,
2019-10-23 14:50:11,54.9,51.6,29.98,ENE,78,2.9,8,89,0,,,0,141.00,meteobridge,2019-10-23 12:50:11,
2019-10-23 14:55:13,55,51.8,29.98,ESE,110,2.9,6,89,0,,,0,137.00,meteobridge,2019-10-23 12:55:13,
2019-10-23 15:00:17,55.2,52,29.98,East,94,6,8,89,0,,,0,171.00,meteobridge,2019-10-23 13:00:17,
2019-10-23 15:05:22,55.4,52.2,29.97,ENE,76,2.9,9,89,0,,,0,193.00,meteobridge,2019-10-23 13:05:22,
2019-10-23 15:10:27,55.6,52.7,29.96,ENE,67,6,9,90,0,,,0,355.00,meteobridge,2019-10-23 13:10:27,
2019-10-23 15:15:01,55.8,52.5,29.96,ESE,113,8.1,8,89,0,,,0,278.00,meteobridge,2019-10-23 13:15:01,
2019-10-23 15:20:05,55.9,52.7,29.96,ENE,71,4.9,8,89,0,,,0,281.00,meteobridge,2019-10-23 13:20:05,
2019-10-23 15:25:10,55.9,52.7,29.96,East,96,0.9,6,89,0,,,0,172.00,meteobridge,2019-10-23 13:25:10,
2019-10-23 15:30:10,55.9,52.7,29.96,East,100,2.9,8,89,0,,,0,132.00,meteobridge,2019-10-23 13:30:10,
2019-10-23 15:35:16,56.5,53.6,29.96,ENE,72,8.1,8,90,0,,,0,105.00,meteobridge,2019-10-23 13:35:16,
2019-10-23 15:40:18,56.5,53.2,29.96,ENE,78,0.9,6,89,0,,,0,132.00,meteobridge,2019-10-23 13:40:18,
2019-10-23 15:45:18,56.7,53.4,29.96,ESE,106,2.9,9,89,0,,,0,125.00,meteobridge,2019-10-23 13:45:18,
2019-10-23 15:50:18,56.8,53.2,29.96,ENE,57,2.9,8,88,0,,,0,139.00,meteobridge,2019-10-23 13:50:18,
2019-10-23 15:55:20,57,53.2,29.95,East,92,2.9,6,87,0,,,0,146.00,meteobridge,2019-10-23 13:55:20,
2019-10-23 16:00:22,57.4,53.6,29.95,ESE,111,2.9,6,87,0,,,0,95.00,meteobridge,2019-10-23 14:00:22,
2019-10-23 16:05:26,57.4,53.6,29.95,East,98,6.9,9,87,0,,,0,79.00,meteobridge,2019-10-23 14:05:26,
2019-10-23 16:10:28,56.8,52.7,29.94,ESE,110,6,8,86,0,,,0,65.00,meteobridge,2019-10-23 14:10:28,
2019-10-23 16:15:02,56.7,52.9,29.94,East,95,4,8,87,0,,,0,69.00,meteobridge,2019-10-23 14:15:02,
2019-10-23 16:20:06,56.3,52.5,29.93,ESE,117,2,9,87,0,,,0,77.00,meteobridge,2019-10-23 14:20:06,
2019-10-23 16:25:06,56.1,52.3,29.93,East,101,2.9,11,87,0,,,0,72.00,meteobridge,2019-10-23 14:25:06,
2019-10-23 16:30:06,55.9,52.2,29.93,ESE,102,2,8,87,0,,,0,72.00,meteobridge,2019-10-23 14:30:06,
2019-10-23 16:35:08,55.9,52.5,29.93,East,88,2.9,10,88,0,,,0,70.00,meteobridge,2019-10-23 14:35:08,
2019-10-23 16:40:08,55.9,52.5,29.92,ESE,104,2,6,88,0,,,0,77.00,meteobridge,2019-10-23 14:40:08,
2019-10-23 16:45:08,55.9,52.5,29.91,ENE,76,2.9,5,88,0,,,0,86.00,meteobridge,2019-10-23 14:45:08,
2019-10-23 16:50:10,55.9,52.7,29.91,East,92,2,5,89,0,,,0,84.00,meteobridge,2019-10-23 14:50:10,
2019-10-23 16:55:10,55.9,52.7,29.91,East,79,4,9,89,0,,,0,72.00,meteobridge,2019-10-23 14:55:10,
2019-10-23 17:00:14,55.9,52.7,29.90,ESE,103,2.9,9,89,0,,,0,81.00,meteobridge,2019-10-23 15:00:14,
2019-10-23 17:05:16,55.9,52.7,29.91,ENE,74,2.9,8,89,0,,,0,77.00,meteobridge,2019-10-23 15:05:16,
2019-10-23 17:10:20,55.9,52.7,29.90,ENE,69,4,8,89,0,,,0,72.00,meteobridge,2019-10-23 15:10:20,
2019-10-23 17:15:20,55.9,52.7,29.90,ESE,102,4,5,89,0,,,0,54.00,meteobridge,2019-10-23 15:15:20,
2019-10-23 17:20:20,55.8,52.9,29.90,East,85,4,9,90,0,,,0,33.00,meteobridge,2019-10-23 15:20:20,
2019-10-23 17:25:20,55.6,52.7,29.89,ENE,70,4.9,7,90,0,,,0,25.00,meteobridge,2019-10-23 15:25:20,
2019-10-23 17:30:20,55.2,52.3,29.89,ENE,78,4,5,90,0,,,0,25.00,meteobridge,2019-10-23 15:30:20,
2019-10-23 17:35:20,55,52.2,29.88,ENE,65,6,7,90,0,,,0,25.00,meteobridge,2019-10-23 15:35:20,
2019-10-23 17:40:20,55,52.5,29.88,East,101,2.9,7,91,0,,,0,30.00,meteobridge,2019-10-23 15:40:20,
2019-10-23 17:45:26,54.9,52.3,29.88,East,80,8.1,8,91,0,,,0,32.00,meteobridge,2019-10-23 15:45:26,
2019-10-23 17:50:00,54.9,52.3,29.88,East,83,4,5,91,0,,,0,26.00,meteobridge,2019-10-23 15:50:00,
2019-10-23 17:55:04,54.9,52.3,29.88,ENE,65,4.9,5,91,0,,,0,19.00,meteobridge,2019-10-23 15:55:04,
2019-10-23 18:00:14,54.7,52.2,29.88,East,91,0,4,91,0,,,0,14.00,meteobridge,2019-10-23 16:00:14,
2019-10-23 18:05:14,54.5,52,29.88,ENE,78,2.9,5,91,0,,,0,12.00,meteobridge,2019-10-23 16:05:14,
2019-10-23 18:10:18,54.3,52,29.88,NE,53,2,5,92,0,,,0,9.00,meteobridge,2019-10-23 16:10:18,
2019-10-23 18:15:18,54.1,51.8,29.88,ENE,75,4.9,7,92,0,,,0,9.00,meteobridge,2019-10-23 16:15:18,
2019-10-23 18:20:20,54,51.6,29.88,ENE,73,0.9,5,92,0,,,0,5.00,meteobridge,2019-10-23 16:20:20,
2019-10-23 18:25:22,54,51.6,29.88,ENE,65,2.9,5,92,0,,,0,0.00,meteobridge,2019-10-23 16:25:22,
2019-10-23 18:30:28,53.8,51.8,29.88,ENE,65,2.9,6,93,0,,,0,0.00,meteobridge,2019-10-23 16:30:28,
2019-10-23 18:35:00,53.8,51.8,29.88,ENE,69,2.9,5,93,0,,,0,0.00,meteobridge,2019-10-23 16:35:00,
2019-10-23 18:40:08,53.6,51.6,29.88,East,80,2.9,4,93,0,,,0,0.00,meteobridge,2019-10-23 16:40:08,
2019-10-23 18:45:12,53.4,51.4,29.88,East,100,2,5,93,0,,,0,0.00,meteobridge,2019-10-23 16:45:12,
2019-10-23 18:50:18,53.4,51.4,29.88,East,80,2.9,6,93,0,,,0,0.00,meteobridge,2019-10-23 16:50:18,
2019-10-23 18:55:22,53.2,51.3,29.87,ENE,71,4,8,93,0,,,0,0.00,meteobridge,2019-10-23 16:55:22,
2019-10-23 19:00:26,53.1,51.1,29.86,ENE,73,2,9,93,0,,,0,0.00,meteobridge,2019-10-23 17:00:26,
2019-10-23 19:05:28,53.1,51.1,29.86,ENE,63,2.9,8,93,0,,,0,0.00,meteobridge,2019-10-23 17:05:28,
2019-10-23 19:10:06,52.9,50.9,29.87,ENE,78,2,6,93,0,,,0,0.00,meteobridge,2019-10-23 17:10:06,
2019-10-23 19:15:08,52.9,50.9,29.87,East,88,2.9,4,93,0,,,0,0.00,meteobridge,2019-10-23 17:15:08,
2019-10-23 19:20:10,52.9,51.3,29.87,East,81,4,7,94,0,,,0,0.00,meteobridge,2019-10-23 17:20:10,
2019-10-23 19:25:12,52.7,51.1,29.87,ENE,61,2,6,94,0,,,0,0.00,meteobridge,2019-10-23 17:25:12,
2019-10-23 19:30:16,52.7,51.1,29.86,NE,41,2.9,8,94,0,,,0,0.00,meteobridge,2019-10-23 17:30:16,
2019-10-23 19:35:18,52.5,50.9,29.86,ENE,67,4,7,94,0,,,0,0.00,meteobridge,2019-10-23 17:35:18,
2019-10-23 19:40:22,52.5,50.9,29.86,ESE,118,6,6,94,0,,,0,0.00,meteobridge,2019-10-23 17:40:22,
2019-10-23 19:45:26,52.5,50.9,29.86,ESE,105,2.9,6,94,0,,,0,0.00,meteobridge,2019-10-23 17:45:26,
2019-10-23 19:50:00,52.5,50.9,29.85,ENE,69,2.9,8,94,0,,,0,0.00,meteobridge,2019-10-23 17:50:00,
2019-10-23 19:55:02,52.3,50.7,29.85,East,96,2.9,7,94,0,,,0,0.00,meteobridge,2019-10-23 17:55:02,
2019-10-23 20:00:04,52.3,50.7,29.85,East,101,4,4,94,0,,,0,0.00,meteobridge,2019-10-23 18:00:04,
2019-10-23 20:05:08,52.2,50.5,29.85,ESE,110,0.9,7,94,0,,,0,0.00,meteobridge,2019-10-23 18:05:08,
2019-10-23 20:10:12,52.2,50.5,29.84,SE,126,4.9,8,94,0,,,0,0.00,meteobridge,2019-10-23 18:10:12,
2019-10-23 20:15:16,52.2,50.5,29.85,ESE,118,6,7,94,0,,,0,0.00,meteobridge,2019-10-23 18:15:16,
2019-10-23 20:20:20,52.2,50.5,29.85,East,88,2.9,4,94,0,,,0,0.00,meteobridge,2019-10-23 18:20:20,
2019-10-23 20:25:20,52.2,50.5,29.84,ESE,117,2,7,94,0,,,0,0.00,meteobridge,2019-10-23 18:25:20,
2019-10-23 20:30:24,52.2,50.2,29.84,SSE,148,2,8,93,0,,,0,0.00,meteobridge,2019-10-23 18:30:24,
2019-10-23 20:35:26,52,50.4,29.84,ESE,102,4,6,94,0,,,0,0.00,meteobridge,2019-10-23 18:35:26,
2019-10-23 20:40:00,52,50,29.84,ESE,103,2,6,93,0,,,0,0.00,meteobridge,2019-10-23 18:40:00,
2019-10-23 20:45:02,52,50,29.83,NNE,14,2,4,93,0,,,0,0.00,meteobridge,2019-10-23 18:45:02,
2019-10-23 20:50:04,52,50,29.84,East,100,4,6,93,0,,,0,0.00,meteobridge,2019-10-23 18:50:04,
2019-10-23 20:55:08,51.8,49.8,29.84,East,100,2,4,93,0,,,0,0.00,meteobridge,2019-10-23 18:55:08,
2019-10-23 21:00:12,52,50.4,29.83,ESE,103,2,3,94,0,,,0,0.00,meteobridge,2019-10-23 19:00:12,
2019-10-23 21:05:16,52,50.4,29.83,SSE,155,2,6,94,0,,,0,0.00,meteobridge,2019-10-23 19:05:16,
2019-10-23 21:10:20,52,50.4,29.83,ESE,109,2.9,6,94,0,,,0,0.00,meteobridge,2019-10-23 19:10:20,
2019-10-23 21:15:24,52,50.4,29.83,East,90,6,6,94,0,,,0,0.00,meteobridge,2019-10-23 19:15:24,
2019-10-23 21:20:28,52.2,50.5,29.83,East,100,0.9,2,94,0,,,0,0.00,meteobridge,2019-10-23 19:20:28,
2019-10-23 21:25:02,52.2,50.5,29.83,ESE,118,2,3,94,0,,,0,0.00,meteobridge,2019-10-23 19:25:02,
2019-10-23 21:30:06,52.3,50.7,29.82,East,101,2.9,5,94,0,,,0,0.00,meteobridge,2019-10-23 19:30:06,
2019-10-23 21:35:10,52.3,50.7,29.82,ESE,109,0.9,4,94,0,,,0,0.00,meteobridge,2019-10-23 19:35:10,
2019-10-23 21:40:14,52.5,50.9,29.83,East,101,0.9,3,94,0,,,0,0.00,meteobridge,2019-10-23 19:40:14,
2019-10-23 21:45:18,52.9,51.3,29.82,ESE,118,2.9,7,94,0,,,0,0.00,meteobridge,2019-10-23 19:45:18,
2019-10-23 21:50:22,53.1,51.4,29.82,ESE,109,0.9,4,94,0,,,0,0.00,meteobridge,2019-10-23 19:50:22,
2019-10-23 21:55:26,53.1,51.1,29.82,East,86,2.9,3,93,0,,,0,0.00,meteobridge,2019-10-23 19:55:26,
2019-10-23 22:00:30,53.1,51.1,29.81,East,100,0.9,4,93,0,,,0,0.00,meteobridge,2019-10-23 20:00:30,
2019-10-23 22:05:02,53.1,51.1,29.81,East,93,2,2,93,0,,,0,0.00,meteobridge,2019-10-23 20:05:02,
2019-10-23 22:10:06,53.1,51.4,29.81,ESE,113,0.9,3,94,0,,,0,0.00,meteobridge,2019-10-23 20:10:06,
2019-10-23 22:15:10,53.1,51.4,29.81,ESE,111,2,4,94,0,,,0,0.00,meteobridge,2019-10-23 20:15:10,
2019-10-23 22:20:14,53.1,51.4,29.81,ESE,111,0.9,3,94,0,,,0,0.00,meteobridge,2019-10-23 20:20:14,
2019-10-23 22:25:18,53.2,51.6,29.81,ESE,115,2,3,94,0,,,0,0.00,meteobridge,2019-10-23 20:25:18,
2019-10-23 22:30:22,53.2,51.6,29.81,East,98,2,4,94,0,,,0,0.00,meteobridge,2019-10-23 20:30:22,
2019-10-23 22:35:26,53.4,51.8,29.80,East,95,2,7,94,0,,,0,0.00,meteobridge,2019-10-23 20:35:26,
2019-10-23 22:40:00,53.4,51.8,29.80,SE,130,0.9,4,94,0,,,0,0.00,meteobridge,2019-10-23 20:40:00,
2019-10-23 22:45:04,53.4,51.8,29.81,SE,132,0.9,4,94,0,,,0,0.00,meteobridge,2019-10-23 20:45:04,
2019-10-23 22:50:04,53.2,51.3,29.81,SE,128,0,3,93,0,,,0,0.00,meteobridge,2019-10-23 20:50:04,
2019-10-23 22:55:08,53.1,51.1,29.81,SE,128,0,0,93,0,,,0,0.00,meteobridge,2019-10-23 20:55:08,
2019-10-23 23:00:12,52.5,50.9,29.81,SE,126,0.9,2,94,0,,,0,0.00,meteobridge,2019-10-23 21:00:12,
2019-10-23 23:05:16,52.5,50.9,29.81,East,88,0,1,94,0,,,0,0.00,meteobridge,2019-10-23 21:05:16,
2019-10-23 23:10:20,52.2,50.5,29.81,East,88,0,1,94,0,,,0,0.00,meteobridge,2019-10-23 21:10:20,
2019-10-23 23:15:24,52,50.5,29.81,East,88,0.9,1,95,0,,,0,0.00,meteobridge,2019-10-23 21:15:24,
2019-10-23 23:20:28,52,50.5,29.80,East,88,0.9,2,95,0,,,0,0.00,meteobridge,2019-10-23 21:20:28,
2019-10-23 23:25:02,52,50.5,29.81,East,91,2,2,95,0,,,0,0.00,meteobridge,2019-10-23 21:25:02,
2019-10-23 23:30:06,52.2,50.7,29.80,East,90,0,0,95,0,,,0,0.00,meteobridge,2019-10-23 21:30:06,
2019-10-23 23:35:10,52,50.5,29.80,East,89,0.9,2,95,0,,,0,0.00,meteobridge,2019-10-23 21:35:10,
2019-10-23 23:40:14,52.3,50.9,29.79,ENE,67,2,3,95,0,,,0,0.00,meteobridge,2019-10-23 21:40:14,
2019-10-23 23:45:18,52.5,51.1,29.79,East,92,2.9,4,95,0,,,0,0.00,meteobridge,2019-10-23 21:45:18,
2019-10-23 23:50:22,52.7,51.3,29.78,ESE,105,4,7,95,0,,,0,0.00,meteobridge,2019-10-23 21:50:22,
2019-10-23 23:55:26,52.9,51.4,29.78,ESE,104,4,4,95,0,,,0,0.00,meteobridge,2019-10-23 21:55:26,